sensor_id;sensor_type;location;lat;lon;timestamp;P1;durP1;ratioP1;P2;durP2;ratioP2
7531;SDS011;3807;49.030;8.714;2023-06-14T00:00:49;4.70;;;3.40;;
7531;SDS011;3807;49.030;8.714;2023-06-14T00:03:14;4.05;;;3.08;;
7531;SDS011;3807;49.030;8.714;2023-06-14T00:05:42;6.53;;;3.40;;
7531;SDS011;3807;49.030;8.714;2023-06-14T00:08:08;5.55;;;3.53;;
7531;SDS011;3807;49.030;8.714;2023-06-14T00:10:35;7.57;;;3.20;;
7531;SDS011;3807;49.030;8.714;2023-06-14T00:13:01;4.37;;;3.40;;
7531;SDS011;3807;49.030;8.714;2023-06-14T00:15:27;5.00;;;3.50;;
7531;SDS011;3807;49.030;8.714;2023-06-14T00:17:53;3.83;;;3.15;;
7531;SDS011;3807;49.030;8.714;2023-06-14T00:20:20;3.60;;;3.20;;
7531;SDS011;3807;49.030;8.714;2023-06-14T00:22:45;5.78;;;3.83;;
7531;SDS011;3807;49.030;8.714;2023-06-14T00:25:11;4.03;;;3.20;;
7531;SDS011;3807;49.030;8.714;2023-06-14T00:27:36;8.05;;;3.70;;
7531;SDS011;3807;49.030;8.714;2023-06-14T00:30:02;3.72;;;3.10;;
7531;SDS011;3807;49.030;8.714;2023-06-14T00:32:27;5.95;;;3.40;;
7531;SDS011;3807;49.030;8.714;2023-06-14T00:34:52;6.10;;;3.30;;
7531;SDS011;3807;49.030;8.714;2023-06-14T00:37:18;5.05;;;3.17;;
7531;SDS011;3807;49.030;8.714;2023-06-14T00:39:43;9.57;;;3.58;;
7531;SDS011;3807;49.030;8.714;2023-06-14T00:42:08;4.53;;;3.58;;
7531;SDS011;3807;49.030;8.714;2023-06-14T00:44:34;3.83;;;3.30;;
7531;SDS011;3807;49.030;8.714;2023-06-14T00:46:59;5.57;;;3.53;;
7531;SDS011;3807;49.030;8.714;2023-06-14T00:49:24;5.03;;;3.50;;
7531;SDS011;3807;49.030;8.714;2023-06-14T00:51:50;4.12;;;3.50;;
7531;SDS011;3807;49.030;8.714;2023-06-14T00:54:16;5.28;;;3.00;;
7531;SDS011;3807;49.030;8.714;2023-06-14T00:56:41;4.25;;;2.97;;
7531;SDS011;3807;49.030;8.714;2023-06-14T00:59:08;6.35;;;3.25;;
7531;SDS011;3807;49.030;8.714;2023-06-14T01:01:36;3.22;;;2.92;;
7531;SDS011;3807;49.030;8.714;2023-06-14T01:04:02;5.07;;;3.15;;
7531;SDS011;3807;49.030;8.714;2023-06-14T01:06:43;6.00;;;3.45;;
7531;SDS011;3807;49.030;8.714;2023-06-14T01:09:22;5.37;;;3.00;;
7531;SDS011;3807;49.030;8.714;2023-06-14T01:11:59;3.95;;;3.53;;
7531;SDS011;3807;49.030;8.714;2023-06-14T01:14:29;3.20;;;2.90;;
7531;SDS011;3807;49.030;8.714;2023-06-14T01:16:57;6.05;;;3.67;;
7531;SDS011;3807;49.030;8.714;2023-06-14T01:19:24;7.10;;;4.07;;
7531;SDS011;3807;49.030;8.714;2023-06-14T01:21:50;3.53;;;3.12;;
7531;SDS011;3807;49.030;8.714;2023-06-14T01:24:16;8.35;;;4.00;;
7531;SDS011;3807;49.030;8.714;2023-06-14T01:26:44;4.97;;;3.75;;
7531;SDS011;3807;49.030;8.714;2023-06-14T01:29:10;4.97;;;3.53;;
7531;SDS011;3807;49.030;8.714;2023-06-14T01:31:37;4.28;;;3.05;;
7531;SDS011;3807;49.030;8.714;2023-06-14T01:34:06;6.37;;;3.40;;
7531;SDS011;3807;49.030;8.714;2023-06-14T01:36:33;4.47;;;3.22;;
7531;SDS011;3807;49.030;8.714;2023-06-14T01:39:01;7.05;;;3.60;;
7531;SDS011;3807;49.030;8.714;2023-06-14T01:41:27;4.82;;;3.05;;
7531;SDS011;3807;49.030;8.714;2023-06-14T01:43:53;7.22;;;3.40;;
7531;SDS011;3807;49.030;8.714;2023-06-14T01:46:20;6.07;;;3.15;;
7531;SDS011;3807;49.030;8.714;2023-06-14T01:48:46;6.33;;;3.90;;
7531;SDS011;3807;49.030;8.714;2023-06-14T01:51:11;3.80;;;3.37;;
7531;SDS011;3807;49.030;8.714;2023-06-14T01:53:37;4.68;;;3.90;;
7531;SDS011;3807;49.030;8.714;2023-06-14T01:56:02;5.12;;;3.55;;
7531;SDS011;3807;49.030;8.714;2023-06-14T01:58:28;4.37;;;3.70;;
7531;SDS011;3807;49.030;8.714;2023-06-14T02:00:53;7.03;;;3.55;;
7531;SDS011;3807;49.030;8.714;2023-06-14T02:03:20;3.75;;;3.35;;
7531;SDS011;3807;49.030;8.714;2023-06-14T02:05:46;5.13;;;4.03;;
7531;SDS011;3807;49.030;8.714;2023-06-14T02:08:11;5.47;;;3.43;;
7531;SDS011;3807;49.030;8.714;2023-06-14T02:10:37;4.80;;;3.43;;
7531;SDS011;3807;49.030;8.714;2023-06-14T02:13:02;4.53;;;3.57;;
7531;SDS011;3807;49.030;8.714;2023-06-14T02:15:27;4.12;;;3.30;;
7531;SDS011;3807;49.030;8.714;2023-06-14T02:17:58;4.73;;;4.00;;
7531;SDS011;3807;49.030;8.714;2023-06-14T02:20:23;4.37;;;3.67;;
7531;SDS011;3807;49.030;8.714;2023-06-14T02:22:49;3.73;;;3.33;;
7531;SDS011;3807;49.030;8.714;2023-06-14T02:25:14;6.80;;;3.67;;
7531;SDS011;3807;49.030;8.714;2023-06-14T02:27:40;7.27;;;3.50;;
7531;SDS011;3807;49.030;8.714;2023-06-14T02:30:05;4.37;;;3.57;;
7531;SDS011;3807;49.030;8.714;2023-06-14T02:32:32;7.63;;;3.73;;
7531;SDS011;3807;49.030;8.714;2023-06-14T02:34:59;5.80;;;3.70;;
7531;SDS011;3807;49.030;8.714;2023-06-14T02:37:24;4.60;;;3.20;;
7531;SDS011;3807;49.030;8.714;2023-06-14T02:39:49;5.70;;;3.43;;
7531;SDS011;3807;49.030;8.714;2023-06-14T02:42:15;5.67;;;3.40;;
7531;SDS011;3807;49.030;8.714;2023-06-14T02:44:40;5.70;;;3.90;;
7531;SDS011;3807;49.030;8.714;2023-06-14T02:47:05;8.33;;;3.70;;
7531;SDS011;3807;49.030;8.714;2023-06-14T02:49:31;6.10;;;3.50;;
7531;SDS011;3807;49.030;8.714;2023-06-14T02:51:56;7.77;;;3.73;;
7531;SDS011;3807;49.030;8.714;2023-06-14T02:54:22;12.73;;;3.80;;
7531;SDS011;3807;49.030;8.714;2023-06-14T02:56:47;6.57;;;4.00;;
7531;SDS011;3807;49.030;8.714;2023-06-14T02:59:13;4.10;;;3.70;;
7531;SDS011;3807;49.030;8.714;2023-06-14T03:01:39;10.80;;;4.07;;
7531;SDS011;3807;49.030;8.714;2023-06-14T03:04:06;5.50;;;3.63;;
7531;SDS011;3807;49.030;8.714;2023-06-14T03:06:32;8.33;;;3.73;;
7531;SDS011;3807;49.030;8.714;2023-06-14T03:08:58;5.03;;;3.97;;
7531;SDS011;3807;49.030;8.714;2023-06-14T03:11:25;5.97;;;3.77;;
7531;SDS011;3807;49.030;8.714;2023-06-14T03:13:51;4.60;;;3.87;;
7531;SDS011;3807;49.030;8.714;2023-06-14T03:16:16;4.53;;;4.00;;
7531;SDS011;3807;49.030;8.714;2023-06-14T03:18:44;14.00;;;4.30;;
7531;SDS011;3807;49.030;8.714;2023-06-14T03:21:09;5.10;;;3.67;;
7531;SDS011;3807;49.030;8.714;2023-06-14T03:23:36;5.40;;;3.80;;
7531;SDS011;3807;49.030;8.714;2023-06-14T03:26:01;4.57;;;3.80;;
7531;SDS011;3807;49.030;8.714;2023-06-14T03:28:26;4.30;;;3.83;;
7531;SDS011;3807;49.030;8.714;2023-06-14T03:30:52;5.83;;;3.90;;
7531;SDS011;3807;49.030;8.714;2023-06-14T03:33:17;6.60;;;4.00;;
7531;SDS011;3807;49.030;8.714;2023-06-14T03:35:43;3.93;;;3.47;;
7531;SDS011;3807;49.030;8.714;2023-06-14T03:38:08;7.83;;;4.37;;
7531;SDS011;3807;49.030;8.714;2023-06-14T03:40:33;5.47;;;4.57;;
7531;SDS011;3807;49.030;8.714;2023-06-14T03:42:59;7.20;;;3.87;;
7531;SDS011;3807;49.030;8.714;2023-06-14T03:45:25;7.87;;;3.90;;
7531;SDS011;3807;49.030;8.714;2023-06-14T03:47:50;6.07;;;4.10;;
7531;SDS011;3807;49.030;8.714;2023-06-14T03:50:17;6.20;;;3.70;;
7531;SDS011;3807;49.030;8.714;2023-06-14T03:52:43;5.67;;;4.40;;
7531;SDS011;3807;49.030;8.714;2023-06-14T03:55:09;6.10;;;3.80;;
7531;SDS011;3807;49.030;8.714;2023-06-14T03:57:35;7.20;;;4.10;;
7531;SDS011;3807;49.030;8.714;2023-06-14T04:00:00;6.90;;;3.97;;
7531;SDS011;3807;49.030;8.714;2023-06-14T04:02:26;4.67;;;3.57;;
7531;SDS011;3807;49.030;8.714;2023-06-14T04:04:54;6.87;;;4.30;;
7531;SDS011;3807;49.030;8.714;2023-06-14T04:07:19;4.73;;;4.00;;
7531;SDS011;3807;49.030;8.714;2023-06-14T04:09:45;7.53;;;4.67;;
7531;SDS011;3807;49.030;8.714;2023-06-14T04:12:11;6.53;;;4.03;;
7531;SDS011;3807;49.030;8.714;2023-06-14T04:14:36;9.50;;;4.70;;
7531;SDS011;3807;49.030;8.714;2023-06-14T04:17:02;9.00;;;4.33;;
7531;SDS011;3807;49.030;8.714;2023-06-14T04:19:28;8.50;;;4.97;;
7531;SDS011;3807;49.030;8.714;2023-06-14T04:21:53;10.40;;;4.70;;
7531;SDS011;3807;49.030;8.714;2023-06-14T04:24:18;8.23;;;5.03;;
7531;SDS011;3807;49.030;8.714;2023-06-14T04:26:44;7.40;;;4.80;;
7531;SDS011;3807;49.030;8.714;2023-06-14T04:29:10;5.80;;;4.17;;
7531;SDS011;3807;49.030;8.714;2023-06-14T04:31:39;8.47;;;4.17;;
7531;SDS011;3807;49.030;8.714;2023-06-14T04:34:05;4.93;;;3.93;;
7531;SDS011;3807;49.030;8.714;2023-06-14T04:36:35;8.17;;;4.87;;
7531;SDS011;3807;49.030;8.714;2023-06-14T04:39:03;5.67;;;4.40;;
7531;SDS011;3807;49.030;8.714;2023-06-14T04:41:31;8.70;;;4.80;;
7531;SDS011;3807;49.030;8.714;2023-06-14T04:43:57;8.73;;;4.63;;
7531;SDS011;3807;49.030;8.714;2023-06-14T04:46:26;10.57;;;4.60;;
7531;SDS011;3807;49.030;8.714;2023-06-14T04:48:55;5.30;;;4.70;;
7531;SDS011;3807;49.030;8.714;2023-06-14T04:51:21;6.33;;;4.23;;
7531;SDS011;3807;49.030;8.714;2023-06-14T04:53:54;8.57;;;4.80;;
7531;SDS011;3807;49.030;8.714;2023-06-14T04:56:22;9.00;;;4.50;;
7531;SDS011;3807;49.030;8.714;2023-06-14T04:58:48;7.87;;;4.60;;
7531;SDS011;3807;49.030;8.714;2023-06-14T05:01:13;8.37;;;4.60;;
7531;SDS011;3807;49.030;8.714;2023-06-14T05:03:39;5.77;;;4.50;;
7531;SDS011;3807;49.030;8.714;2023-06-14T05:06:04;6.97;;;4.70;;
7531;SDS011;3807;49.030;8.714;2023-06-14T05:08:29;6.10;;;4.47;;
7531;SDS011;3807;49.030;8.714;2023-06-14T05:10:55;7.00;;;4.13;;
7531;SDS011;3807;49.030;8.714;2023-06-14T05:13:20;5.87;;;4.23;;
7531;SDS011;3807;49.030;8.714;2023-06-14T05:15:48;4.63;;;3.87;;
7531;SDS011;3807;49.030;8.714;2023-06-14T05:18:14;5.43;;;4.50;;
7531;SDS011;3807;49.030;8.714;2023-06-14T05:20:39;5.60;;;4.30;;
7531;SDS011;3807;49.030;8.714;2023-06-14T05:23:06;7.57;;;4.57;;
7531;SDS011;3807;49.030;8.714;2023-06-14T05:25:32;5.97;;;4.30;;
7531;SDS011;3807;49.030;8.714;2023-06-14T05:27:57;6.77;;;4.10;;
7531;SDS011;3807;49.030;8.714;2023-06-14T05:30:23;10.90;;;4.50;;
7531;SDS011;3807;49.030;8.714;2023-06-14T05:32:48;9.30;;;4.80;;
7531;SDS011;3807;49.030;8.714;2023-06-14T05:35:13;7.27;;;4.50;;
7531;SDS011;3807;49.030;8.714;2023-06-14T05:37:39;7.17;;;4.03;;
7531;SDS011;3807;49.030;8.714;2023-06-14T05:40:04;6.73;;;4.10;;
7531;SDS011;3807;49.030;8.714;2023-06-14T05:42:31;7.13;;;4.67;;
7531;SDS011;3807;49.030;8.714;2023-06-14T05:44:57;5.93;;;4.27;;
7531;SDS011;3807;49.030;8.714;2023-06-14T05:47:22;10.33;;;4.70;;
7531;SDS011;3807;49.030;8.714;2023-06-14T05:49:47;7.97;;;4.47;;
7531;SDS011;3807;49.030;8.714;2023-06-14T05:52:13;6.10;;;4.13;;
7531;SDS011;3807;49.030;8.714;2023-06-14T05:54:38;6.90;;;4.80;;
7531;SDS011;3807;49.030;8.714;2023-06-14T05:57:03;4.67;;;4.13;;
7531;SDS011;3807;49.030;8.714;2023-06-14T05:59:31;9.13;;;4.47;;
7531;SDS011;3807;49.030;8.714;2023-06-14T06:01:56;7.43;;;4.30;;
7531;SDS011;3807;49.030;8.714;2023-06-14T06:04:22;4.47;;;4.07;;
7531;SDS011;3807;49.030;8.714;2023-06-14T06:06:48;8.53;;;4.50;;
7531;SDS011;3807;49.030;8.714;2023-06-14T06:09:13;6.53;;;4.10;;
7531;SDS011;3807;49.030;8.714;2023-06-14T06:11:41;6.80;;;4.60;;
7531;SDS011;3807;49.030;8.714;2023-06-14T06:14:06;6.83;;;4.03;;
7531;SDS011;3807;49.030;8.714;2023-06-14T06:16:32;6.83;;;4.00;;
7531;SDS011;3807;49.030;8.714;2023-06-14T06:18:58;5.47;;;4.03;;
7531;SDS011;3807;49.030;8.714;2023-06-14T06:21:24;6.77;;;4.20;;
7531;SDS011;3807;49.030;8.714;2023-06-14T06:23:49;7.50;;;4.23;;
7531;SDS011;3807;49.030;8.714;2023-06-14T06:26:15;6.07;;;4.40;;
7531;SDS011;3807;49.030;8.714;2023-06-14T06:28:40;9.63;;;4.43;;
7531;SDS011;3807;49.030;8.714;2023-06-14T06:31:05;8.10;;;4.23;;
7531;SDS011;3807;49.030;8.714;2023-06-14T06:33:31;7.87;;;4.87;;
7531;SDS011;3807;49.030;8.714;2023-06-14T06:35:57;5.27;;;4.37;;
7531;SDS011;3807;49.030;8.714;2023-06-14T06:38:22;4.77;;;4.17;;
7531;SDS011;3807;49.030;8.714;2023-06-14T06:40:47;4.57;;;3.77;;
7531;SDS011;3807;49.030;8.714;2023-06-14T06:43:13;5.43;;;4.50;;
7531;SDS011;3807;49.030;8.714;2023-06-14T06:45:39;5.83;;;4.40;;
7531;SDS011;3807;49.030;8.714;2023-06-14T06:48:05;7.07;;;4.20;;
7531;SDS011;3807;49.030;8.714;2023-06-14T06:50:30;6.77;;;4.40;;
7531;SDS011;3807;49.030;8.714;2023-06-14T06:52:56;6.80;;;4.77;;
7531;SDS011;3807;49.030;8.714;2023-06-14T06:55:22;6.50;;;4.50;;
7531;SDS011;3807;49.030;8.714;2023-06-14T06:57:47;4.77;;;4.10;;
7531;SDS011;3807;49.030;8.714;2023-06-14T07:00:14;6.10;;;4.70;;
7531;SDS011;3807;49.030;8.714;2023-06-14T07:02:40;5.27;;;4.00;;
7531;SDS011;3807;49.030;8.714;2023-06-14T07:05:06;7.63;;;4.17;;
7531;SDS011;3807;49.030;8.714;2023-06-14T07:07:32;6.13;;;3.90;;
7531;SDS011;3807;49.030;8.714;2023-06-14T07:09:57;7.70;;;4.43;;
7531;SDS011;3807;49.030;8.714;2023-06-14T07:12:23;8.03;;;4.30;;
7531;SDS011;3807;49.030;8.714;2023-06-14T07:14:48;7.77;;;4.70;;
7531;SDS011;3807;49.030;8.714;2023-06-14T07:17:14;6.63;;;3.73;;
7531;SDS011;3807;49.030;8.714;2023-06-14T07:19:39;6.23;;;4.80;;
7531;SDS011;3807;49.030;8.714;2023-06-14T07:22:04;5.07;;;3.80;;
7531;SDS011;3807;49.030;8.714;2023-06-14T07:24:30;6.40;;;4.33;;
7531;SDS011;3807;49.030;8.714;2023-06-14T07:26:55;5.30;;;3.93;;
7531;SDS011;3807;49.030;8.714;2023-06-14T07:29:21;10.90;;;4.43;;
7531;SDS011;3807;49.030;8.714;2023-06-14T07:31:47;5.50;;;3.87;;
7531;SDS011;3807;49.030;8.714;2023-06-14T07:34:12;4.27;;;3.87;;
7531;SDS011;3807;49.030;8.714;2023-06-14T07:36:38;4.93;;;4.23;;
7531;SDS011;3807;49.030;8.714;2023-06-14T07:39:04;5.67;;;4.03;;
7531;SDS011;3807;49.030;8.714;2023-06-14T07:41:30;5.80;;;4.10;;
7531;SDS011;3807;49.030;8.714;2023-06-14T07:43:56;12.03;;;4.53;;
7531;SDS011;3807;49.030;8.714;2023-06-14T07:46:21;6.10;;;4.33;;
7531;SDS011;3807;49.030;8.714;2023-06-14T07:48:47;6.50;;;3.67;;
7531;SDS011;3807;49.030;8.714;2023-06-14T07:51:13;6.07;;;4.43;;
7531;SDS011;3807;49.030;8.714;2023-06-14T07:53:38;7.00;;;3.63;;
7531;SDS011;3807;49.030;8.714;2023-06-14T07:56:04;6.47;;;4.17;;
7531;SDS011;3807;49.030;8.714;2023-06-14T07:58:29;7.70;;;4.47;;
7531;SDS011;3807;49.030;8.714;2023-06-14T08:00:54;5.83;;;3.37;;
7531;SDS011;3807;49.030;8.714;2023-06-14T08:03:20;5.83;;;4.03;;
7531;SDS011;3807;49.030;8.714;2023-06-14T08:05:47;8.43;;;4.00;;
7531;SDS011;3807;49.030;8.714;2023-06-14T08:08:13;8.47;;;4.47;;
7531;SDS011;3807;49.030;8.714;2023-06-14T08:10:38;7.17;;;3.27;;
7531;SDS011;3807;49.030;8.714;2023-06-14T08:13:03;10.07;;;4.77;;
7531;SDS011;3807;49.030;8.714;2023-06-14T08:15:29;6.00;;;3.97;;
7531;SDS011;3807;49.030;8.714;2023-06-14T08:17:54;7.83;;;4.10;;
7531;SDS011;3807;49.030;8.714;2023-06-14T08:20:19;7.90;;;3.77;;
7531;SDS011;3807;49.030;8.714;2023-06-14T08:22:45;5.70;;;3.93;;
7531;SDS011;3807;49.030;8.714;2023-06-14T08:25:13;6.63;;;3.70;;
7531;SDS011;3807;49.030;8.714;2023-06-14T08:27:38;4.57;;;3.90;;
7531;SDS011;3807;49.030;8.714;2023-06-14T08:30:04;7.00;;;3.80;;
7531;SDS011;3807;49.030;8.714;2023-06-14T08:32:29;5.13;;;4.00;;
7531;SDS011;3807;49.030;8.714;2023-06-14T08:34:55;4.67;;;4.10;;
7531;SDS011;3807;49.030;8.714;2023-06-14T08:37:20;6.43;;;3.50;;
7531;SDS011;3807;49.030;8.714;2023-06-14T08:39:46;5.87;;;4.13;;
7531;SDS011;3807;49.030;8.714;2023-06-14T08:42:11;5.03;;;3.83;;
7531;SDS011;3807;49.030;8.714;2023-06-14T08:44:39;5.03;;;4.03;;
7531;SDS011;3807;49.030;8.714;2023-06-14T08:47:04;7.83;;;4.13;;
7531;SDS011;3807;49.030;8.714;2023-06-14T08:49:32;5.90;;;4.40;;
7531;SDS011;3807;49.030;8.714;2023-06-14T08:51:58;7.17;;;4.17;;
7531;SDS011;3807;49.030;8.714;2023-06-14T08:54:28;5.33;;;3.80;;
7531;SDS011;3807;49.030;8.714;2023-06-14T08:56:57;5.07;;;3.73;;
7531;SDS011;3807;49.030;8.714;2023-06-14T08:59:26;5.13;;;3.47;;
7531;SDS011;3807;49.030;8.714;2023-06-14T09:01:54;5.17;;;3.50;;
7531;SDS011;3807;49.030;8.714;2023-06-14T09:04:23;4.63;;;3.57;;
7531;SDS011;3807;49.030;8.714;2023-06-14T09:06:54;6.43;;;3.33;;
7531;SDS011;3807;49.030;8.714;2023-06-14T09:09:20;5.37;;;3.20;;
7531;SDS011;3807;49.030;8.714;2023-06-14T09:11:47;4.27;;;3.67;;
7531;SDS011;3807;49.030;8.714;2023-06-14T09:14:14;4.47;;;4.03;;
7531;SDS011;3807;49.030;8.714;2023-06-14T09:16:40;8.27;;;3.43;;
7531;SDS011;3807;49.030;8.714;2023-06-14T09:19:05;4.90;;;3.63;;
7531;SDS011;3807;49.030;8.714;2023-06-14T09:21:33;6.17;;;4.07;;
7531;SDS011;3807;49.030;8.714;2023-06-14T09:24:01;6.13;;;3.50;;
7531;SDS011;3807;49.030;8.714;2023-06-14T09:26:27;7.73;;;3.67;;
7531;SDS011;3807;49.030;8.714;2023-06-14T09:28:53;5.60;;;3.70;;
7531;SDS011;3807;49.030;8.714;2023-06-14T09:31:19;11.87;;;3.40;;
7531;SDS011;3807;49.030;8.714;2023-06-14T09:33:47;5.03;;;3.80;;
7531;SDS011;3807;49.030;8.714;2023-06-14T09:36:17;4.03;;;3.37;;
7531;SDS011;3807;49.030;8.714;2023-06-14T09:38:53;4.60;;;3.17;;
7531;SDS011;3807;49.030;8.714;2023-06-14T09:41:20;5.03;;;3.40;;
7531;SDS011;3807;49.030;8.714;2023-06-14T09:43:55;4.53;;;3.73;;
7531;SDS011;3807;49.030;8.714;2023-06-14T09:46:22;8.47;;;3.47;;
7531;SDS011;3807;49.030;8.714;2023-06-14T09:48:47;4.30;;;3.00;;
7531;SDS011;3807;49.030;8.714;2023-06-14T09:51:13;8.70;;;3.57;;
7531;SDS011;3807;49.030;8.714;2023-06-14T09:53:40;5.33;;;3.37;;
7531;SDS011;3807;49.030;8.714;2023-06-14T09:56:07;4.87;;;3.73;;
7531;SDS011;3807;49.030;8.714;2023-06-14T09:58:35;5.23;;;3.50;;
7531;SDS011;3807;49.030;8.714;2023-06-14T10:01:04;5.15;;;3.33;;
7531;SDS011;3807;49.030;8.714;2023-06-14T10:03:33;4.43;;;3.35;;
7531;SDS011;3807;49.030;8.714;2023-06-14T10:06:01;5.12;;;3.17;;
7531;SDS011;3807;49.030;8.714;2023-06-14T10:08:31;4.57;;;3.30;;
7531;SDS011;3807;49.030;8.714;2023-06-14T10:11:02;5.03;;;3.47;;
7531;SDS011;3807;49.030;8.714;2023-06-14T10:13:28;5.35;;;3.33;;
7531;SDS011;3807;49.030;8.714;2023-06-14T10:18:48;5.70;;;3.60;;
7531;SDS011;3807;49.030;8.714;2023-06-14T10:23:59;5.68;;;3.00;;
7531;SDS011;3807;49.030;8.714;2023-06-14T10:26:29;5.45;;;3.15;;
7531;SDS011;3807;49.030;8.714;2023-06-14T10:28:56;3.87;;;3.05;;
7531;SDS011;3807;49.030;8.714;2023-06-14T10:31:43;5.93;;;2.85;;
7531;SDS011;3807;49.030;8.714;2023-06-14T10:34:11;4.50;;;3.00;;
7531;SDS011;3807;49.030;8.714;2023-06-14T10:36:37;5.43;;;3.05;;
7531;SDS011;3807;49.030;8.714;2023-06-14T10:41:54;4.80;;;3.05;;
7531;SDS011;3807;49.030;8.714;2023-06-14T10:46:46;4.32;;;2.95;;
7531;SDS011;3807;49.030;8.714;2023-06-14T10:49:12;5.22;;;2.87;;
7531;SDS011;3807;49.030;8.714;2023-06-14T10:51:42;3.15;;;2.75;;
7531;SDS011;3807;49.030;8.714;2023-06-14T10:54:14;6.37;;;3.37;;
7531;SDS011;3807;49.030;8.714;2023-06-14T10:56:46;5.75;;;2.90;;
7531;SDS011;3807;49.030;8.714;2023-06-14T10:59:16;6.82;;;3.15;;
7531;SDS011;3807;49.030;8.714;2023-06-14T11:04:11;5.25;;;3.25;;
7531;SDS011;3807;49.030;8.714;2023-06-14T11:06:47;5.93;;;3.28;;
7531;SDS011;3807;49.030;8.714;2023-06-14T11:12:09;5.18;;;3.10;;
7531;SDS011;3807;49.030;8.714;2023-06-14T11:14:36;4.50;;;3.12;;
7531;SDS011;3807;49.030;8.714;2023-06-14T11:17:03;4.25;;;2.67;;
7531;SDS011;3807;49.030;8.714;2023-06-14T11:19:29;6.90;;;3.05;;
7531;SDS011;3807;49.030;8.714;2023-06-14T11:21:55;4.15;;;3.00;;
7531;SDS011;3807;49.030;8.714;2023-06-14T11:24:20;8.35;;;3.17;;
7531;SDS011;3807;49.030;8.714;2023-06-14T11:26:46;5.53;;;3.00;;
7531;SDS011;3807;49.030;8.714;2023-06-14T11:29:12;6.00;;;3.53;;
7531;SDS011;3807;49.030;8.714;2023-06-14T11:31:43;5.40;;;2.65;;
7531;SDS011;3807;49.030;8.714;2023-06-14T11:34:10;4.15;;;2.55;;
7531;SDS011;3807;49.030;8.714;2023-06-14T11:36:38;4.12;;;2.87;;
7531;SDS011;3807;49.030;8.714;2023-06-14T11:39:04;6.15;;;3.03;;
7531;SDS011;3807;49.030;8.714;2023-06-14T11:41:41;4.25;;;3.00;;
7531;SDS011;3807;49.030;8.714;2023-06-14T11:44:08;4.97;;;3.00;;
7531;SDS011;3807;49.030;8.714;2023-06-14T11:46:34;4.47;;;2.80;;
7531;SDS011;3807;49.030;8.714;2023-06-14T11:48:59;6.25;;;2.70;;
7531;SDS011;3807;49.030;8.714;2023-06-14T11:51:28;3.75;;;2.97;;
7531;SDS011;3807;49.030;8.714;2023-06-14T11:53:55;4.00;;;2.90;;
7531;SDS011;3807;49.030;8.714;2023-06-14T11:56:21;7.18;;;3.00;;
7531;SDS011;3807;49.030;8.714;2023-06-14T11:58:46;5.32;;;2.90;;
7531;SDS011;3807;49.030;8.714;2023-06-14T12:01:18;7.78;;;3.47;;
7531;SDS011;3807;49.030;8.714;2023-06-14T12:03:47;3.08;;;2.78;;
7531;SDS011;3807;49.030;8.714;2023-06-14T12:06:14;2.92;;;2.58;;
7531;SDS011;3807;49.030;8.714;2023-06-14T12:08:39;5.43;;;2.87;;
7531;SDS011;3807;49.030;8.714;2023-06-14T12:11:11;5.03;;;2.80;;
7531;SDS011;3807;49.030;8.714;2023-06-14T12:13:41;4.60;;;3.17;;
7531;SDS011;3807;49.030;8.714;2023-06-14T12:16:08;3.83;;;2.72;;
7531;SDS011;3807;49.030;8.714;2023-06-14T12:18:35;4.28;;;3.00;;
7531;SDS011;3807;49.030;8.714;2023-06-14T12:21:02;4.40;;;2.78;;
7531;SDS011;3807;49.030;8.714;2023-06-14T12:23:40;4.43;;;2.85;;
7531;SDS011;3807;49.030;8.714;2023-06-14T12:26:08;3.55;;;2.65;;
7531;SDS011;3807;49.030;8.714;2023-06-14T12:28:33;4.85;;;2.90;;
7531;SDS011;3807;49.030;8.714;2023-06-14T12:30:59;4.12;;;2.55;;
7531;SDS011;3807;49.030;8.714;2023-06-14T12:33:24;6.22;;;2.70;;
7531;SDS011;3807;49.030;8.714;2023-06-14T12:35:50;3.60;;;2.83;;
7531;SDS011;3807;49.030;8.714;2023-06-14T12:38:16;3.97;;;2.67;;
7531;SDS011;3807;49.030;8.714;2023-06-14T12:40:41;4.68;;;3.05;;
7531;SDS011;3807;49.030;8.714;2023-06-14T12:43:07;5.60;;;2.90;;
7531;SDS011;3807;49.030;8.714;2023-06-14T12:45:32;3.37;;;2.72;;
7531;SDS011;3807;49.030;8.714;2023-06-14T12:47:58;4.32;;;3.08;;
7531;SDS011;3807;49.030;8.714;2023-06-14T12:50:23;2.65;;;2.45;;
7531;SDS011;3807;49.030;8.714;2023-06-14T12:52:48;5.10;;;2.62;;
7531;SDS011;3807;49.030;8.714;2023-06-14T12:55:14;5.05;;;2.80;;
7531;SDS011;3807;49.030;8.714;2023-06-14T12:57:39;3.92;;;2.62;;
7531;SDS011;3807;49.030;8.714;2023-06-14T13:00:05;3.53;;;2.53;;
7531;SDS011;3807;49.030;8.714;2023-06-14T13:02:32;5.93;;;2.75;;
7531;SDS011;3807;49.030;8.714;2023-06-14T13:04:58;5.12;;;2.50;;
7531;SDS011;3807;49.030;8.714;2023-06-14T13:07:25;6.93;;;2.30;;
7531;SDS011;3807;49.030;8.714;2023-06-14T13:09:50;5.70;;;2.95;;
7531;SDS011;3807;49.030;8.714;2023-06-14T13:12:16;4.12;;;2.70;;
7531;SDS011;3807;49.030;8.714;2023-06-14T13:14:41;4.20;;;2.45;;
7531;SDS011;3807;49.030;8.714;2023-06-14T13:17:10;3.97;;;3.08;;
7531;SDS011;3807;49.030;8.714;2023-06-14T13:19:35;3.05;;;2.50;;
7531;SDS011;3807;49.030;8.714;2023-06-14T13:22:01;2.95;;;2.50;;
7531;SDS011;3807;49.030;8.714;2023-06-14T13:24:26;4.47;;;2.20;;
7531;SDS011;3807;49.030;8.714;2023-06-14T13:26:53;4.10;;;2.50;;
7531;SDS011;3807;49.030;8.714;2023-06-14T13:29:19;4.22;;;2.42;;
7531;SDS011;3807;49.030;8.714;2023-06-14T13:31:44;3.53;;;2.58;;
7531;SDS011;3807;49.030;8.714;2023-06-14T13:34:10;7.12;;;2.70;;
7531;SDS011;3807;49.030;8.714;2023-06-14T13:36:35;5.97;;;2.78;;
7531;SDS011;3807;49.030;8.714;2023-06-14T13:39:00;3.47;;;2.78;;
7531;SDS011;3807;49.030;8.714;2023-06-14T13:41:27;3.28;;;2.47;;
7531;SDS011;3807;49.030;8.714;2023-06-14T13:43:58;4.20;;;2.80;;
7531;SDS011;3807;49.030;8.714;2023-06-14T13:46:24;5.03;;;2.47;;
7531;SDS011;3807;49.030;8.714;2023-06-14T13:48:50;5.15;;;2.47;;
7531;SDS011;3807;49.030;8.714;2023-06-14T13:51:16;4.72;;;2.75;;
7531;SDS011;3807;49.030;8.714;2023-06-14T13:53:43;6.68;;;2.75;;
7531;SDS011;3807;49.030;8.714;2023-06-14T13:56:09;5.18;;;2.40;;
7531;SDS011;3807;49.030;8.714;2023-06-14T13:58:35;3.33;;;2.70;;
7531;SDS011;3807;49.030;8.714;2023-06-14T14:01:00;4.10;;;2.58;;
7531;SDS011;3807;49.030;8.714;2023-06-14T14:03:26;5.37;;;2.60;;
7531;SDS011;3807;49.030;8.714;2023-06-14T14:05:52;3.42;;;2.70;;
7531;SDS011;3807;49.030;8.714;2023-06-14T14:08:17;2.53;;;2.33;;
7531;SDS011;3807;49.030;8.714;2023-06-14T14:10:43;3.22;;;2.92;;
7531;SDS011;3807;49.030;8.714;2023-06-14T14:13:09;3.03;;;2.60;;
7531;SDS011;3807;49.030;8.714;2023-06-14T14:15:34;4.03;;;2.50;;
7531;SDS011;3807;49.030;8.714;2023-06-14T14:17:59;4.65;;;2.70;;
7531;SDS011;3807;49.030;8.714;2023-06-14T14:20:25;5.97;;;2.67;;
7531;SDS011;3807;49.030;8.714;2023-06-14T14:22:50;3.87;;;2.95;;
7531;SDS011;3807;49.030;8.714;2023-06-14T14:25:16;4.00;;;2.50;;
7531;SDS011;3807;49.030;8.714;2023-06-14T14:27:41;4.68;;;3.08;;
7531;SDS011;3807;49.030;8.714;2023-06-14T14:30:07;11.43;;;2.78;;
7531;SDS011;3807;49.030;8.714;2023-06-14T14:32:32;3.15;;;2.70;;
7531;SDS011;3807;49.030;8.714;2023-06-14T14:34:58;4.80;;;2.42;;
7531;SDS011;3807;49.030;8.714;2023-06-14T14:37:23;3.95;;;2.72;;
7531;SDS011;3807;49.030;8.714;2023-06-14T14:39:48;7.57;;;2.75;;
7531;SDS011;3807;49.030;8.714;2023-06-14T14:42:14;4.00;;;2.80;;
7531;SDS011;3807;49.030;8.714;2023-06-14T14:44:39;2.62;;;2.40;;
7531;SDS011;3807;49.030;8.714;2023-06-14T14:47:05;3.72;;;2.78;;
7531;SDS011;3807;49.030;8.714;2023-06-14T14:49:31;3.03;;;2.55;;
7531;SDS011;3807;49.030;8.714;2023-06-14T14:51:56;2.97;;;2.70;;
7531;SDS011;3807;49.030;8.714;2023-06-14T14:54:22;3.53;;;2.60;;
7531;SDS011;3807;49.030;8.714;2023-06-14T14:56:48;3.90;;;3.20;;
7531;SDS011;3807;49.030;8.714;2023-06-14T14:59:14;7.07;;;2.67;;
7531;SDS011;3807;49.030;8.714;2023-06-14T15:01:39;4.65;;;2.60;;
7531;SDS011;3807;49.030;8.714;2023-06-14T15:04:05;3.15;;;2.58;;
7531;SDS011;3807;49.030;8.714;2023-06-14T15:06:30;4.20;;;2.58;;
7531;SDS011;3807;49.030;8.714;2023-06-14T15:08:55;3.12;;;2.60;;
7531;SDS011;3807;49.030;8.714;2023-06-14T15:11:21;4.00;;;3.15;;
7531;SDS011;3807;49.030;8.714;2023-06-14T15:13:46;17.02;;;3.20;;
7531;SDS011;3807;49.030;8.714;2023-06-14T15:16:12;2.90;;;2.65;;
7531;SDS011;3807;49.030;8.714;2023-06-14T15:18:37;2.83;;;2.50;;
7531;SDS011;3807;49.030;8.714;2023-06-14T15:21:03;4.00;;;2.87;;
7531;SDS011;3807;49.030;8.714;2023-06-14T15:23:28;4.35;;;2.97;;
7531;SDS011;3807;49.030;8.714;2023-06-14T15:25:53;3.53;;;2.45;;